createdAt,value
2022-10-31T00:01:51.603Z,10.97
2022-10-31T00:04:18.017Z,11.00
2022-10-31T00:06:44.433Z,10.89
2022-10-31T00:09:11.595Z,10.95
2022-10-31T00:11:38.029Z,10.84
2022-10-31T00:14:04.789Z,10.71
2022-10-31T00:16:31.384Z,10.72
2022-10-31T00:19:03.526Z,10.65
2022-10-31T00:21:30.592Z,10.74
2022-10-31T00:23:58.117Z,10.82
2022-10-31T00:26:24.567Z,10.67
2022-10-31T00:28:51.964Z,10.65
2022-10-31T00:31:18.488Z,10.68
2022-10-31T00:33:45.139Z,10.76
2022-10-31T00:36:13.812Z,10.80
2022-10-31T00:38:41.417Z,10.91
2022-10-31T00:41:08.046Z,10.82
2022-10-31T00:43:34.550Z,10.69
2022-10-31T00:46:01.124Z,10.68
2022-10-31T00:48:27.551Z,10.66
2022-10-31T00:50:54.146Z,10.71
2022-10-31T00:53:20.718Z,10.65
2022-10-31T00:55:47.512Z,10.63
2022-10-31T01:00:41.457Z,10.42
2022-10-31T01:03:08.175Z,10.37
2022-10-31T01:05:38.448Z,10.39
2022-10-31T01:08:04.993Z,10.29
2022-10-31T01:10:31.417Z,10.21
2022-10-31T01:12:58.167Z,10.31
2022-10-31T01:15:24.781Z,10.40
2022-10-31T01:17:51.285Z,10.28
2022-10-31T01:20:17.936Z,10.18
2022-10-31T01:22:44.369Z,10.25
2022-10-31T01:25:11.290Z,10.19
2022-10-31T01:27:37.819Z,10.06
2022-10-31T01:30:07.057Z,9.98
2022-10-31T01:32:33.584Z,9.87
2022-10-31T01:35:00.175Z,9.95
2022-10-31T01:37:26.748Z,10.11
2022-10-31T01:39:53.189Z,10.04
2022-10-31T01:42:21.695Z,10.06
2022-10-31T01:44:53.506Z,10.02
2022-10-31T01:47:22.406Z,10.06
2022-10-31T01:50:00.892Z,10.01
2022-10-31T01:52:30.098Z,9.99
2022-10-31T01:55:02.283Z,9.98
2022-10-31T01:57:29.933Z,10.12
2022-10-31T01:59:59.260Z,10.16
2022-10-31T02:02:26.369Z,10.10
2022-10-31T02:04:53.131Z,10.25
2022-10-31T02:07:24.655Z,10.32
2022-10-31T02:09:52.435Z,10.40
2022-10-31T02:12:19.788Z,10.37
2022-10-31T02:14:47.206Z,10.41
2022-10-31T02:17:14.173Z,10.44
2022-10-31T02:19:52.867Z,10.45
2022-10-31T02:22:28.267Z,10.37
2022-10-31T02:25:22.586Z,10.37
2022-10-31T02:28:12.406Z,10.48
2022-10-31T02:30:48.752Z,10.49
2022-10-31T02:33:26.905Z,10.31
2022-10-31T02:36:08.896Z,10.06
2022-10-31T02:38:43.860Z,10.01
2022-10-31T02:41:36.020Z,10.01
2022-10-31T02:44:36.516Z,10.13
2022-10-31T02:47:09.028Z,10.02
2022-10-31T02:49:41.160Z,9.86
2022-10-31T02:52:24.108Z,9.83
2022-10-31T02:54:51.589Z,9.91
2022-10-31T02:57:23.412Z,9.84
2022-10-31T02:59:51.801Z,9.88
2022-10-31T03:02:24.454Z,10.02
2022-10-31T03:05:09.229Z,9.99
2022-10-31T03:07:48.859Z,9.98
2022-10-31T03:10:28.329Z,10.04
2022-10-31T03:13:05.133Z,9.94
2022-10-31T03:15:34.612Z,10.02
2022-10-31T03:18:27.329Z,9.91
2022-10-31T03:20:57.675Z,9.81
2022-10-31T03:23:25.490Z,10.01
2022-10-31T03:25:53.445Z,9.86
2022-10-31T03:28:29.385Z,9.81
2022-10-31T03:30:57.962Z,9.73
2022-10-31T03:33:28.052Z,9.80
2022-10-31T03:35:58.344Z,9.66
2022-10-31T03:38:24.908Z,9.77
2022-10-31T03:40:55.515Z,9.65
2022-10-31T03:43:25.880Z,9.69
2022-10-31T03:45:52.571Z,9.63
2022-10-31T03:48:20.961Z,9.48
2022-10-31T03:51:06.329Z,9.45
2022-10-31T03:53:40.535Z,9.36
2022-10-31T03:56:13.524Z,9.37
2022-10-31T03:58:43.829Z,9.33
2022-10-31T04:01:13.190Z,9.35
2022-10-31T04:03:40.824Z,9.26
2022-10-31T04:06:11.451Z,9.54
2022-10-31T04:08:42.980Z,9.52
2022-10-31T04:11:14.784Z,9.23
2022-10-31T04:13:43.200Z,9.09
2022-10-31T04:16:17.165Z,9.10
2022-10-31T04:18:44.650Z,9.31
2022-10-31T04:21:11.203Z,9.30
2022-10-31T04:23:37.720Z,9.13
2022-10-31T04:26:14.515Z,9.15
2022-10-31T04:28:43.908Z,9.03
2022-10-31T04:31:12.453Z,8.93
2022-10-31T04:33:42.291Z,8.94
2022-10-31T04:36:08.980Z,8.96
2022-10-31T04:38:36.082Z,9.07
2022-10-31T04:41:08.269Z,9.17
2022-10-31T04:43:53.094Z,9.26
2022-10-31T04:46:19.741Z,9.38
2022-10-31T04:48:46.270Z,9.33
2022-10-31T04:51:12.843Z,9.23
2022-10-31T04:53:40.145Z,9.23
2022-10-31T04:56:32.571Z,9.34
2022-10-31T04:59:01.990Z,9.37
2022-10-31T05:01:36.097Z,9.46
2022-10-31T05:04:02.765Z,9.39
2022-10-31T05:06:32.203Z,9.51
2022-10-31T05:08:59.663Z,9.44
2022-10-31T05:11:26.151Z,9.36
2022-10-31T05:13:55.845Z,9.34
2022-10-31T05:16:54.132Z,9.23
2022-10-31T05:19:43.453Z,9.17
2022-10-31T05:22:47.313Z,9.16
2022-10-31T05:25:13.920Z,9.12
2022-10-31T05:27:45.073Z,8.87
2022-10-31T05:30:12.870Z,8.81
2022-10-31T05:32:43.034Z,8.64
2022-10-31T05:35:47.776Z,8.84
2022-10-31T05:38:35.859Z,8.98
2022-10-31T05:41:10.921Z,9.00
2022-10-31T05:43:39.376Z,8.91
2022-10-31T05:46:07.052Z,8.97
2022-10-31T05:49:05.594Z,9.04
2022-10-31T05:51:52.380Z,9.12
2022-10-31T05:54:23.171Z,9.03
2022-10-31T05:56:49.727Z,9.15
2022-10-31T05:59:16.235Z,8.99
2022-10-31T06:01:42.815Z,9.21
2022-10-31T06:04:24.600Z,9.19
2022-10-31T06:06:51.141Z,9.15
2022-10-31T06:09:17.700Z,9.02
2022-10-31T06:11:45.218Z,8.97
2022-10-31T06:14:26.577Z,9.07
2022-10-31T06:16:55.655Z,9.17
2022-10-31T06:19:40.507Z,9.22
2022-10-31T06:22:08.762Z,9.26
2022-10-31T06:24:35.192Z,9.45
2022-10-31T06:27:19.988Z,9.78
2022-10-31T06:29:46.841Z,10.00
2022-10-31T06:32:22.217Z,10.12
2022-10-31T06:34:49.206Z,10.21
2022-10-31T06:37:16.324Z,10.49
2022-10-31T06:39:45.967Z,10.71
2022-10-31T06:42:16.275Z,10.85
2022-10-31T06:44:43.544Z,11.14
2022-10-31T06:48:10.980Z,11.60
2022-10-31T06:50:33.045Z,12.02
2022-10-31T06:52:59.686Z,12.36
2022-10-31T06:55:26.957Z,12.88
2022-10-31T06:58:00.273Z,13.03
2022-10-31T07:00:31.093Z,13.43
2022-10-31T07:03:05.920Z,13.89
2022-10-31T07:05:33.796Z,13.82
2022-10-31T07:08:02.000Z,13.47
2022-10-31T07:10:32.085Z,13.81
2022-10-31T07:13:06.552Z,14.20
2022-10-31T07:15:38.036Z,15.32
2022-10-31T07:18:05.559Z,16.26
2022-10-31T07:20:33.852Z,16.62
2022-10-31T07:23:01.614Z,16.58
2022-10-31T07:25:28.732Z,16.12
2022-10-31T07:28:24.665Z,16.77
2022-10-31T07:30:55.974Z,16.08
2022-10-31T07:33:22.612Z,16.27
2022-10-31T07:36:27.264Z,16.44
2022-10-31T07:38:59.323Z,16.22
2022-10-31T07:41:25.966Z,15.96
2022-10-31T07:46:48.040Z,16.31
2022-10-31T07:49:33.053Z,17.05
2022-10-31T07:52:17.916Z,17.15
2022-10-31T07:55:03.350Z,16.85
2022-10-31T07:57:34.422Z,18.22
2022-10-31T08:00:01.409Z,17.85
2022-10-31T08:02:28.780Z,17.75
2022-10-31T08:05:15.441Z,17.81
2022-10-31T08:08:00.727Z,18.25
2022-10-31T08:10:27.989Z,17.94
2022-10-31T08:12:57.191Z,18.68
2022-10-31T08:15:23.618Z,18.07
2022-10-31T08:17:51.632Z,18.26
2022-10-31T08:20:19.286Z,18.14
2022-10-31T08:22:55.734Z,18.24
2022-10-31T08:25:22.432Z,18.19
2022-10-31T08:27:53.060Z,18.51
2022-10-31T08:30:21.505Z,18.99
2022-10-31T08:33:11.287Z,18.54
2022-10-31T08:35:56.138Z,19.43
2022-10-31T08:38:42.825Z,18.64
2022-10-31T08:41:10.861Z,18.75
2022-10-31T08:43:37.332Z,19.48
2022-10-31T08:46:04.172Z,18.89
2022-10-31T08:48:30.908Z,19.33
2022-10-31T08:50:59.084Z,19.22
2022-10-31T08:53:26.877Z,19.74
2022-10-31T08:56:08.850Z,19.26
2022-10-31T08:58:40.031Z,19.68
2022-10-31T09:01:09.048Z,19.57
2022-10-31T09:03:36.076Z,20.09
2022-10-31T09:06:04.019Z,20.06
2022-10-31T09:08:31.552Z,21.03
2022-10-31T09:10:58.396Z,20.01
2022-10-31T09:13:44.755Z,20.19
2022-10-31T09:16:29.551Z,21.19
2022-10-31T09:18:57.130Z,21.49
2022-10-31T09:21:23.732Z,21.29
2022-10-31T09:23:50.435Z,21.11
2022-10-31T09:26:16.917Z,21.10
2022-10-31T09:28:56.021Z,21.05
2022-10-31T09:31:23.900Z,22.67
2022-10-31T09:33:50.367Z,22.04
2022-10-31T09:36:35.263Z,21.79
2022-10-31T09:39:03.437Z,22.33
2022-10-31T09:41:41.190Z,22.18
2022-10-31T09:44:26.509Z,22.13
2022-10-31T09:47:06.080Z,21.58
2022-10-31T09:49:35.752Z,21.53
2022-10-31T09:52:24.358Z,21.58
2022-10-31T09:54:53.764Z,21.32
2022-10-31T09:57:28.372Z,22.01
2022-10-31T09:59:55.508Z,21.78
2022-10-31T10:02:33.836Z,22.46
2022-10-31T10:05:01.817Z,22.35
2022-10-31T10:07:33.945Z,22.24
2022-10-31T10:10:41.582Z,22.64
2022-10-31T10:13:32.508Z,22.28
2022-10-31T10:16:08.568Z,22.42
2022-10-31T10:18:53.425Z,22.71
2022-10-31T10:21:23.392Z,22.68
2022-10-31T10:23:49.828Z,23.03
2022-10-31T10:26:20.955Z,23.20
2022-10-31T10:28:53.311Z,23.13
2022-10-31T10:31:23.802Z,23.56
2022-10-31T10:34:01.368Z,23.33
2022-10-31T10:36:35.521Z,23.23
2022-10-31T10:39:04.679Z,23.41
2022-10-31T10:41:34.518Z,23.94
2022-10-31T10:44:01.399Z,23.55
2022-10-31T10:46:46.422Z,23.15
2022-10-31T10:49:15.868Z,24.02
2022-10-31T10:54:54.917Z,24.02
2022-10-31T10:57:36.521Z,23.94
2022-10-31T11:00:05.148Z,23.72
2022-10-31T11:02:32.380Z,24.21
2022-10-31T11:05:00.561Z,24.05
2022-10-31T11:07:37.815Z,24.43
2022-10-31T11:10:06.039Z,23.62
2022-10-31T11:12:34.416Z,24.42
2022-10-31T11:15:04.943Z,24.61
2022-10-31T11:17:33.100Z,23.95
2022-10-31T11:20:04.643Z,23.98
2022-10-31T11:22:31.157Z,23.73
2022-10-31T11:24:57.591Z,24.88
2022-10-31T11:27:24.996Z,24.87
2022-10-31T11:29:53.653Z,24.29
2022-10-31T11:32:24.887Z,24.73
2022-10-31T11:34:56.343Z,24.80
2022-10-31T11:37:24.953Z,24.73
2022-10-31T11:39:54.650Z,25.20
2022-10-31T11:42:26.289Z,25.08
2022-10-31T11:44:54.280Z,25.27
2022-10-31T11:47:29.083Z,25.29
2022-10-31T11:49:56.332Z,24.66
2022-10-31T11:52:27.740Z,24.57
2022-10-31T11:55:15.478Z,25.14
2022-10-31T11:57:49.307Z,24.91
2022-10-31T12:00:37.081Z,24.27
2022-10-31T12:03:22.075Z,25.20
2022-10-31T12:05:53.331Z,24.86
2022-10-31T12:08:20.374Z,24.94
2022-10-31T12:10:54.580Z,24.64
2022-10-31T12:13:36.239Z,24.86
2022-10-31T12:16:18.946Z,25.44
2022-10-31T12:18:57.804Z,24.08
2022-10-31T12:21:24.196Z,25.07
2022-10-31T12:24:02.731Z,24.97
2022-10-31T12:26:39.767Z,24.89
2022-10-31T12:29:21.125Z,25.10
2022-10-31T12:31:56.651Z,24.66
2022-10-31T12:34:34.217Z,23.78
2022-10-31T12:37:21.287Z,24.53
2022-10-31T12:39:56.755Z,24.76
2022-10-31T12:42:26.332Z,24.99
2022-10-31T12:45:00.573Z,25.08
2022-10-31T12:47:45.842Z,25.17
2022-10-31T12:50:18.448Z,24.69
2022-10-31T12:52:54.002Z,24.76
2022-10-31T12:55:31.320Z,24.68
2022-10-31T12:58:02.896Z,25.48
2022-10-31T13:00:30.695Z,25.14
2022-10-31T13:03:00.193Z,24.64
2022-10-31T13:05:41.513Z,23.75
2022-10-31T13:08:18.923Z,23.76
2022-10-31T13:10:48.388Z,23.52
2022-10-31T13:13:35.125Z,23.51
2022-10-31T13:16:08.516Z,23.49
2022-10-31T13:18:39.545Z,23.68
2022-10-31T13:21:09.840Z,23.86
2022-10-31T13:23:50.749Z,23.66
2022-10-31T13:26:35.328Z,23.19
2022-10-31T13:29:04.807Z,23.39
2022-10-31T13:31:31.368Z,23.34
2022-10-31T13:34:00.883Z,23.01
2022-10-31T13:36:30.128Z,23.47
2022-10-31T13:39:04.925Z,23.48
2022-10-31T13:41:32.162Z,23.57
2022-10-31T13:44:01.908Z,23.60
2022-10-31T13:46:34.360Z,22.88
2022-10-31T13:49:01.078Z,23.13
2022-10-31T13:51:29.359Z,22.43
2022-10-31T13:53:55.761Z,22.63
2022-10-31T13:56:27.071Z,22.53
2022-10-31T13:59:05.793Z,22.53
2022-10-31T14:01:33.122Z,22.29
2022-10-31T14:04:19.276Z,22.61
2022-10-31T14:06:53.427Z,22.62
2022-10-31T14:09:21.594Z,22.01
2022-10-31T14:11:48.967Z,22.12
2022-10-31T14:14:16.388Z,22.04
2022-10-31T14:16:44.774Z,22.20
2022-10-31T14:19:18.643Z,21.90
2022-10-31T14:21:46.655Z,21.80
2022-10-31T14:24:31.074Z,21.75
2022-10-31T14:26:57.469Z,21.46
2022-10-31T14:29:25.803Z,21.46
2022-10-31T14:31:53.904Z,21.28
2022-10-31T14:34:37.602Z,21.11
2022-10-31T14:37:22.968Z,21.67
2022-10-31T14:40:05.037Z,21.17
2022-10-31T14:42:37.660Z,20.92
2022-10-31T14:45:19.357Z,20.97
2022-10-31T14:48:16.360Z,20.99
2022-10-31T14:50:53.659Z,20.43
2022-10-31T14:53:23.166Z,20.66
2022-10-31T14:55:50.975Z,19.99
2022-10-31T14:58:22.763Z,20.15
2022-10-31T15:00:51.699Z,19.67
2022-10-31T15:03:23.976Z,19.52
2022-10-31T15:05:52.280Z,19.34
2022-10-31T15:08:30.905Z,19.22
2022-10-31T15:10:57.496Z,19.35
2022-10-31T15:13:24.112Z,18.84
2022-10-31T15:15:52.982Z,18.58
2022-10-31T15:18:22.878Z,18.05
2022-10-31T15:20:51.154Z,17.97
2022-10-31T15:23:22.093Z,17.89
2022-10-31T15:25:48.555Z,17.86
2022-10-31T15:28:25.333Z,17.94
2022-10-31T15:30:55.925Z,18.09
2022-10-31T15:33:27.122Z,17.76
2022-10-31T15:36:00.860Z,17.83
2022-10-31T15:38:28.236Z,17.70
2022-10-31T15:41:00.837Z,17.37
2022-10-31T15:43:28.560Z,17.08
2022-10-31T15:45:55.285Z,16.91
2022-10-31T15:48:25.677Z,16.92
2022-10-31T15:50:54.266Z,16.95
2022-10-31T15:53:30.874Z,16.81
2022-10-31T15:55:58.942Z,16.89
2022-10-31T15:58:26.248Z,16.79
2022-10-31T16:01:00.346Z,16.50
2022-10-31T16:03:28.459Z,16.37
2022-10-31T16:05:56.604Z,16.16
2022-10-31T16:08:32.023Z,16.14
2022-10-31T16:11:01.375Z,16.07
2022-10-31T16:13:29.048Z,15.83
2022-10-31T16:16:28.853Z,16.22
2022-10-31T16:18:47.552Z,16.04
2022-10-31T16:21:14.143Z,15.81
2022-10-31T16:23:45.408Z,15.47
2022-10-31T16:26:15.780Z,15.16
2022-10-31T16:28:51.216Z,15.08
2022-10-31T16:31:19.796Z,15.08
2022-10-31T16:33:46.334Z,15.00
2022-10-31T16:36:45.474Z,15.07
2022-10-31T16:39:11.995Z,14.79
2022-10-31T16:41:48.216Z,14.35
2022-10-31T16:44:27.218Z,14.50
2022-10-31T16:47:08.170Z,14.22
2022-10-31T16:49:34.616Z,14.46
2022-10-31T16:52:01.072Z,14.30
2022-10-31T16:54:29.794Z,14.27
2022-10-31T16:56:56.284Z,14.32
2022-10-31T16:59:22.730Z,14.29
2022-10-31T17:01:50.011Z,13.98
2022-10-31T17:04:16.635Z,14.11
2022-10-31T17:06:43.208Z,14.06
2022-10-31T17:09:09.786Z,13.92
2022-10-31T17:11:36.260Z,13.93
2022-10-31T17:14:04.076Z,13.83
2022-10-31T17:16:30.487Z,13.71
2022-10-31T17:18:57.080Z,13.62
2022-10-31T17:21:24.336Z,13.62
2022-10-31T17:23:51.120Z,13.68
2022-10-31T17:26:18.241Z,13.60
2022-10-31T17:28:45.027Z,13.64
2022-10-31T17:31:22.709Z,13.60
2022-10-31T17:33:49.873Z,13.38
2022-10-31T17:36:16.486Z,13.47
2022-10-31T17:38:42.914Z,13.40
2022-10-31T17:41:11.259Z,13.36
2022-10-31T17:43:38.804Z,13.46
2022-10-31T17:46:08.295Z,13.34
2022-10-31T17:48:35.462Z,13.23
2022-10-31T17:51:02.950Z,13.29
2022-10-31T17:53:30.419Z,13.38
2022-10-31T17:56:04.119Z,13.34
2022-10-31T17:58:30.901Z,13.13
2022-10-31T18:00:58.108Z,12.89
2022-10-31T18:03:24.916Z,12.89
2022-10-31T18:05:52.457Z,12.77
2022-10-31T18:08:18.871Z,12.93
2022-10-31T18:10:45.287Z,12.88
2022-10-31T18:13:11.692Z,12.84
2022-10-31T18:15:41.154Z,12.72
2022-10-31T18:18:07.583Z,12.74
2022-10-31T18:20:34.099Z,12.65
2022-10-31T18:23:00.551Z,12.80
2022-10-31T18:25:27.025Z,12.78
2022-10-31T18:27:53.449Z,12.73
2022-10-31T18:30:19.855Z,12.75
2022-10-31T18:32:48.939Z,12.56
2022-10-31T18:35:15.357Z,12.26
2022-10-31T18:37:41.769Z,12.22
2022-10-31T18:40:08.459Z,12.26
2022-10-31T18:42:34.965Z,12.16
2022-10-31T18:45:11.327Z,11.98
2022-10-31T18:47:43.631Z,12.14
2022-10-31T18:50:10.310Z,12.10
2022-10-31T18:52:36.721Z,11.93
2022-10-31T18:55:03.219Z,11.72
2022-10-31T18:57:29.876Z,12.07
2022-10-31T18:59:56.296Z,11.84
2022-10-31T19:02:22.918Z,11.54
2022-10-31T19:04:49.467Z,11.59
2022-10-31T19:07:15.889Z,11.65
2022-10-31T19:09:42.345Z,11.71
2022-10-31T19:12:08.837Z,11.42
2022-10-31T19:14:35.344Z,11.23
2022-10-31T19:17:02.463Z,11.01
2022-10-31T19:19:29.125Z,10.96
2022-10-31T19:21:56.612Z,10.84
2022-10-31T19:24:23.145Z,10.88
2022-10-31T19:26:49.803Z,11.04
2022-10-31T19:29:16.495Z,11.47
2022-10-31T19:31:42.909Z,11.14
2022-10-31T19:34:10.509Z,11.02
2022-10-31T19:36:36.982Z,10.92
2022-10-31T19:39:03.523Z,11.29
2022-10-31T19:41:30.007Z,11.04
2022-10-31T19:43:58.617Z,11.02
2022-10-31T19:46:48.075Z,10.93
2022-10-31T19:49:11.869Z,11.00
2022-10-31T19:51:38.349Z,11.15
2022-10-31T19:54:04.847Z,11.09
2022-10-31T19:56:31.265Z,11.13
2022-10-31T19:58:59.728Z,11.22
2022-10-31T20:01:26.266Z,11.21
2022-10-31T20:03:52.714Z,11.43
2022-10-31T20:06:23.730Z,11.34
2022-10-31T20:08:50.605Z,11.22
2022-10-31T20:11:17.213Z,11.23
2022-10-31T20:13:43.657Z,11.05
2022-10-31T20:16:12.219Z,11.06
2022-10-31T20:18:39.533Z,11.23
2022-10-31T20:21:16.697Z,11.20
2022-10-31T20:23:43.529Z,11.33
2022-10-31T20:26:11.874Z,11.39
2022-10-31T20:28:42.950Z,11.42
2022-10-31T20:31:11.366Z,11.37
2022-10-31T20:33:38.374Z,11.39
2022-10-31T20:36:05.712Z,11.41
2022-10-31T20:38:32.570Z,11.55
2022-10-31T20:40:59.716Z,11.49
2022-10-31T20:43:26.130Z,11.33
2022-10-31T20:45:52.524Z,11.49
2022-10-31T20:48:20.481Z,11.37
2022-10-31T20:50:46.910Z,11.23
2022-10-31T20:53:13.316Z,11.39
2022-10-31T20:55:39.752Z,11.41
2022-10-31T20:58:06.241Z,11.54
2022-10-31T21:00:32.653Z,11.49
2022-10-31T21:02:59.324Z,11.47
2022-10-31T21:05:25.944Z,11.56
2022-10-31T21:07:52.404Z,11.49
2022-10-31T21:10:18.868Z,11.29
2022-10-31T21:12:45.607Z,11.37
2022-10-31T21:15:13.644Z,11.36
2022-10-31T21:17:40.538Z,11.46
2022-10-31T21:20:07.940Z,11.33
2022-10-31T21:22:34.775Z,11.47
2022-10-31T21:25:01.297Z,11.52
2022-10-31T21:27:27.895Z,11.52
2022-10-31T21:29:54.366Z,11.54
2022-10-31T21:32:20.883Z,11.47
2022-10-31T21:34:50.048Z,11.32
2022-10-31T21:37:16.823Z,11.46
2022-10-31T21:39:48.125Z,11.42
2022-10-31T21:42:20.513Z,11.50
2022-10-31T21:44:48.344Z,11.52
2022-10-31T21:47:14.865Z,11.35
2022-10-31T21:49:41.272Z,11.27
2022-10-31T21:52:07.692Z,11.12
2022-10-31T21:54:34.268Z,11.36
2022-10-31T21:57:02.547Z,11.33
2022-10-31T21:59:29.630Z,11.33
2022-10-31T22:01:59.642Z,11.21
2022-10-31T22:04:26.496Z,11.37
2022-10-31T22:06:52.957Z,10.97
2022-10-31T22:09:20.092Z,11.27
2022-10-31T22:11:46.612Z,11.25
2022-10-31T22:14:13.799Z,11.51
2022-10-31T22:16:40.719Z,11.34
2022-10-31T22:19:08.129Z,11.21
2022-10-31T22:21:39.620Z,11.13
2022-10-31T22:24:07.908Z,11.26
2022-10-31T22:26:34.778Z,11.34
2022-10-31T22:29:02.539Z,11.03
2022-10-31T22:31:30.009Z,11.06
2022-10-31T22:33:56.654Z,11.19
2022-10-31T22:36:24.486Z,10.98
2022-10-31T22:38:51.304Z,10.95
2022-10-31T22:41:19.232Z,11.15
2022-10-31T22:43:45.812Z,11.28
2022-10-31T22:46:17.062Z,11.31
2022-10-31T22:48:44.657Z,11.37
2022-10-31T22:51:15.160Z,11.45
2022-10-31T22:53:41.592Z,11.43
2022-10-31T22:56:08.985Z,11.44
2022-10-31T22:58:35.563Z,11.19
2022-10-31T23:01:09.424Z,11.08
2022-10-31T23:03:36.567Z,11.17
2022-10-31T23:06:03.695Z,11.14
2022-10-31T23:08:31.070Z,11.11
2022-10-31T23:10:57.508Z,11.05
2022-10-31T23:13:42.857Z,10.96
2022-10-31T23:16:10.304Z,10.91
2022-10-31T23:18:49.511Z,10.89
2022-10-31T23:21:36.902Z,11.02
2022-10-31T23:24:03.371Z,10.95
2022-10-31T23:26:48.426Z,11.21
2022-10-31T23:29:14.850Z,11.30
2022-10-31T23:31:41.268Z,11.32
2022-10-31T23:34:07.699Z,11.76
2022-10-31T23:36:34.210Z,11.29
2022-10-31T23:39:00.713Z,11.33
2022-10-31T23:41:27.195Z,11.31
2022-10-31T23:43:53.614Z,11.31
2022-10-31T23:46:20.017Z,11.20
2022-10-31T23:48:49.288Z,11.11
2022-10-31T23:51:15.797Z,11.06
2022-10-31T23:53:45.912Z,11.19
2022-10-31T23:56:13.160Z,11.22
2022-10-31T23:58:39.987Z,11.17
